Airfield :







YOU CAN JOIN US ON...

 
LOGIN :

Register | Disclaimer

   EN    FR    IT 

 









Legend :    VFR   Marginal VFR   IFR   Intensive IFR   Very Intensive IFR
Visi :
Ceiling :
>= 8 km
>= 3000ft
5 to 8 km
1000 to 3000 ft
1500m to 5 km
500 to 1000 ft
800 to 1500m
200 to 500 ft
< 800m
< 200 ft
Symbols :   Thunderstorms  Fog  Heavy snow  Heavy precipitations  Wind > 20 kt






- Airport Elevation : 534 ft
- IATA code : PQI


KPQI - Northern Maine Regional Arpt At Presque Isle

CURRENT METAR :
  • 050129Z AUTO 00000KT 3SM BR FEW003 SCT046 BKN070 18/18 A3020 RMK AO2

EXPIRED METARs :
  • 050112Z AUTO 00000KT 1/2SM FG FEW003 BKN070 18/18 A3020 RMK AO2 RVRNO
  • 050056Z AUTO 00000KT 3SM BR FEW050 19/19 A3019 RMK AO2 SLP248 T01890189
  • 042356Z AUTO 16003KT 9SM SCT045 19/19 A3018 RMK AO2 SLP242 60014 T01940189 10250 20194 51004
  • 042256Z AUTO 20003KT 10SM SCT060 21/19 A3017 RMK AO2 SLP241 T02060194

TAF KPQI
Valid from the 05 at 01:00 until the 06 at 00:00 UTC


050104Z 0501/0524 00000KT 6SM BR BKN060
TEMPO 0501/0503 2SM BR
FM050600 15003KT 2SM BR BKN080
FM051200 16005KT P6SM BKN080
FM051900 13006KT P6SM VCSH OVC020
KZBW FIR / North America



MET'MAP, your aeronautical weather chart ! - Copyright ORBIFLY December 2007 - Disclaimer

ORBIFLY MET'MAP TEAM :

Programming & Development : Alexandra Zaïnal
Concept & original design : Baudouin d'Aumeries
Assistance for programming : Marc-Olivier Méhu
Technical & hardware support : Manuel Goepfert

Contact : metmap@orbifly.com




SOURCES & CREDITS :

   NOAA